Time;durP1;ratioP1;P1;durP2;ratioP2;P2;SDS_P1;SDS_P2;PMS_P1;PMS_P2;Temp;Humidity;BMP_temperature;BMP_pressure;BME280_temperature;BME280_humidity;BME280_pressure;Samples;Min_cycle;Max_cycle;Signal;HPM_P1;HPM_P2
2022/04/13 00:00:34;;;;;;;2.08;1.33;;;;;;;19.25;44.84;101097.81;5144008;27;20459;-53
2022/04/13 00:02:59;;;;;;;2.33;1.15;;;;;;;19.23;44.78;101099.81;5145507;27;20035;-55
2022/04/13 00:05:25;;;;;;;1.23;1.00;;;;;;;19.26;44.61;101095.97;5146128;27;20113;-54
2022/04/13 00:07:50;;;;;;;1.40;1.00;;;;;;;19.24;44.88;101096.13;5145585;27;20058;-54
2022/04/13 00:10:15;;;;;;;1.35;1.15;;;;;;;19.25;44.62;101099.69;5145947;27;20042;-56
2022/04/13 00:12:40;;;;;;;1.95;1.10;;;;;;;19.25;44.55;101105.06;5145572;27;20019;-55
2022/04/13 00:15:07;;;;;;;1.33;1.00;;;;;;;19.24;44.78;101106.91;5145385;27;20438;-56
2022/04/13 00:17:32;;;;;;;1.30;1.13;;;;;;;19.24;44.88;101109.59;5145735;27;20030;-56
2022/04/13 00:19:58;;;;;;;1.10;1.00;;;;;;;19.23;44.96;101106.06;5145822;27;20054;-53
2022/04/13 00:22:23;;;;;;;0.80;0.80;;;;;;;19.22;44.87;101104.38;5145148;27;20042;-55
2022/04/13 00:24:49;;;;;;;1.35;0.90;;;;;;;19.23;44.80;101114.16;5145552;27;20091;-57
2022/04/13 00:27:14;;;;;;;1.33;1.08;;;;;;;19.20;44.82;101101.03;5145237;27;20026;-54
2022/04/13 00:29:39;;;;;;;1.35;1.17;;;;;;;19.22;44.72;101106.25;5145383;27;20079;-56
2022/04/13 00:32:05;;;;;;;1.45;1.17;;;;;;;19.21;44.81;101091.06;5145519;27;20023;-56
2022/04/13 00:34:30;;;;;;;1.52;1.05;;;;;;;19.22;44.92;101095.44;5145273;27;20042;-54
2022/04/13 00:36:59;;;;;;;1.70;1.10;;;;;;;19.22;44.98;101098.16;5145160;27;20103;-57
2022/04/13 00:39:25;;;;;;;1.38;1.00;;;;;;;19.22;44.70;101100.84;5145118;27;20047;-55
2022/04/13 00:41:58;;;;;;;1.33;1.17;;;;;;;19.22;44.85;101108.94;5144771;27;20038;-56
2022/04/13 00:44:25;;;;;;;1.65;1.20;;;;;;;19.21;44.89;101099.16;5144744;27;20027;-56
2022/04/13 00:46:50;;;;;;;1.17;1.08;;;;;;;19.21;44.85;101099.16;5144971;27;20063;-57
2022/04/13 00:49:16;;;;;;;1.45;1.30;;;;;;;19.21;44.92;101108.09;5145285;27;20027;-57
2022/04/13 00:51:42;;;;;;;2.42;1.25;;;;;;;19.18;44.76;101100.31;5143674;27;20027;-57
2022/04/13 00:54:08;;;;;;;1.50;1.10;;;;;;;19.20;44.76;101102.88;5144796;27;20091;-57
2022/04/13 00:56:35;;;;;;;1.90;1.20;;;;;;;19.21;44.98;101107.25;5109067;27;20472;-57
2022/04/13 00:59:06;;;;;;;1.67;1.20;;;;;;;19.20;45.12;101110.97;5126321;27;20027;-56
2022/04/13 01:01:31;;;;;;;1.60;1.13;;;;;;;19.19;44.58;101115.47;5145386;27;20015;-57
2022/04/13 01:03:57;;;;;;;1.90;1.20;;;;;;;19.18;44.81;101119.19;5144539;27;20030;-52
2022/04/13 01:06:23;;;;;;;1.25;0.90;;;;;;;19.20;45.01;101116.34;5126110;27;20103;-52
2022/04/13 01:08:50;;;;;;;1.20;1.00;;;;;;;19.20;44.94;101119.06;5144657;27;20035;-57
2022/04/13 01:11:16;;;;;;;1.05;0.93;;;;;;;19.19;44.99;101111.94;5144709;27;20464;-52
2022/04/13 01:13:42;;;;;;;1.20;0.90;;;;;;;19.18;44.97;101124.59;5144318;27;20051;-55
2022/04/13 01:16:07;;;;;;;2.08;1.23;;;;;;;19.18;44.59;101123.75;5144722;27;20050;-56
2022/04/13 01:18:33;;;;;;;2.83;1.23;;;;;;;19.16;44.79;101123.91;5144626;27;20057;-53
2022/04/13 01:21:00;;;;;;;1.25;1.00;;;;;;;19.18;44.56;101121.88;5144637;27;20042;-55
2022/04/13 01:23:25;;;;;;;1.40;1.00;;;;;;;19.17;44.72;101124.75;5144482;27;20027;-54
2022/04/13 01:25:52;;;;;;;1.88;1.17;;;;;;;19.18;44.85;101123.75;5125784;28;20392;-55
2022/04/13 01:28:18;;;;;;;1.92;1.10;;;;;;;19.16;44.57;101125.78;5143958;27;20081;-52
2022/04/13 01:30:43;;;;;;;2.17;1.00;;;;;;;19.16;44.72;101140.09;5144542;27;20455;-52
2022/04/13 01:33:09;;;;;;;1.15;1.05;;;;;;;19.15;44.77;101138.38;5144647;27;20023;-51
2022/04/13 01:35:34;;;;;;;1.13;0.73;;;;;;;19.08;44.62;101133.84;5144645;27;20022;-53
2022/04/13 01:38:00;;;;;;;1.67;1.27;;;;;;;19.16;44.67;101147.34;5144305;27;20152;-52
2022/04/13 01:40:25;;;;;;;1.60;1.20;;;;;;;19.15;44.88;101154.56;5144343;27;20563;-54
2022/04/13 01:42:50;;;;;;;1.38;1.02;;;;;;;19.16;44.78;101158.13;5144084;27;20023;-55
2022/04/13 01:45:19;;;;;;;1.10;0.90;;;;;;;19.14;44.80;101155.56;5143899;27;20023;-53
2022/04/13 01:47:51;;;;;;;1.33;0.93;;;;;;;19.15;44.88;101157.25;5144445;27;20057;-50
2022/04/13 01:50:18;;;;;;;1.02;0.85;;;;;;;19.13;44.70;101164.66;5144536;27;20023;-52
2022/04/13 01:52:45;;;;;;;1.20;1.10;;;;;;;19.15;44.71;101170.72;5143782;27;20086;-54
2022/04/13 01:55:10;;;;;;;1.20;1.00;;;;;;;19.15;44.67;101167.19;5144225;28;20053;-51
2022/04/13 01:57:39;;;;;;;0.95;0.77;;;;;;;19.14;44.95;101169.03;5143684;28;20034;-56
2022/04/13 02:00:05;;;;;;;;;;;;;;;19.10;45.00;101172.25;5144472;28;20432;-53
2022/04/13 02:02:30;;;;;;;1.80;1.20;;;;;;;19.08;44.69;101156.25;5144297;28;19915;-55
2022/04/13 02:04:56;;;;;;;1.10;1.00;;;;;;;19.11;44.62;101172.06;5144243;28;20031;-55
2022/04/13 02:07:21;;;;;;;1.77;1.20;;;;;;;19.11;44.92;101176.59;5143583;28;20104;-56
2022/04/13 02:09:46;;;;;;;1.10;1.00;;;;;;;19.11;44.86;101171.22;5125463;28;20034;-56
2022/04/13 02:12:11;;;;;;;1.17;1.08;;;;;;;19.11;44.65;101173.91;5143782;28;20052;-56
2022/04/13 02:14:36;;;;;;;0.90;0.80;;;;;;;19.11;44.54;101179.31;5143604;28;20062;-52
2022/04/13 02:17:02;;;;;;;1.63;1.13;;;;;;;19.10;44.72;101189.25;5128331;28;20031;-51
2022/04/13 02:19:27;;;;;;;1.88;1.15;;;;;;;19.09;44.72;101186.72;5109677;28;20046;-52
2022/04/13 02:21:52;;;;;;;1.50;1.20;;;;;;;19.10;44.95;101191.94;5108868;28;20050;-56
2022/04/13 02:24:18;;;;;;;1.20;1.10;;;;;;;19.10;44.93;101188.41;5129539;27;20027;-54
2022/04/13 02:26:43;;;;;;;2.22;1.83;;;;;;;19.07;44.61;101192.25;5147643;27;20023;-56
2022/04/13 02:29:08;;;;;;;1.40;1.10;;;;;;;19.09;44.49;101190.25;5129345;27;20091;-55
2022/04/13 02:31:33;;;;;;;1.00;0.90;;;;;;;19.09;44.66;101192.97;5148181;27;20059;-55
2022/04/13 02:33:59;;;;;;;2.58;1.30;;;;;;;19.08;44.86;101191.28;5147984;27;20039;-55
2022/04/13 02:36:24;;;;;;;1.83;1.10;;;;;;;19.02;44.84;101189.22;5147642;27;20083;-56
2022/04/13 02:38:49;;;;;;;1.48;1.30;;;;;;;19.08;44.56;101202.06;5147371;27;20046;-55
2022/04/13 02:41:14;;;;;;;1.20;0.95;;;;;;;19.05;44.64;101196.97;5148171;27;20023;-53
2022/04/13 02:43:40;;;;;;;1.35;0.93;;;;;;;19.07;45.00;101200.34;5147180;27;20027;-55
2022/04/13 02:46:06;;;;;;;1.35;1.13;;;;;;;19.06;44.36;101197.81;5147636;27;20027;-55
2022/04/13 02:48:31;;;;;;;1.55;1.33;;;;;;;19.07;44.87;101205.72;5146527;27;20086;-54
2022/04/13 02:50:56;;;;;;;1.40;1.10;;;;;;;19.07;44.68;101207.59;5147649;27;20034;-55
2022/04/13 02:53:23;;;;;;;1.10;1.00;;;;;;;19.07;44.68;101213.81;5147170;27;20083;-54
2022/04/13 02:55:49;;;;;;;1.60;1.50;;;;;;;19.06;44.56;101217.53;5147358;27;20494;-56
2022/04/13 02:58:14;;;;;;;2.22;1.50;;;;;;;19.06;44.54;101224.78;5146982;27;20031;-56
2022/04/13 03:00:39;;;;;;;1.05;0.93;;;;;;;19.06;45.01;101220.22;5147416;27;20039;-53
2022/04/13 03:03:05;;;;;;;1.60;0.98;;;;;;;19.06;44.84;101224.78;5147482;27;20122;-54
2022/04/13 03:05:30;;;;;;;2.13;1.42;;;;;;;19.04;44.72;101224.09;5147254;27;20065;-54
2022/04/13 03:07:55;;;;;;;1.27;1.08;;;;;;;19.05;44.64;101233.88;5147026;27;20027;-50
2022/04/13 03:10:21;;;;;;;1.08;0.98;;;;;;;19.04;44.59;101232.19;5147133;27;20129;-54
2022/04/13 03:12:46;;;;;;;1.52;1.00;;;;;;;19.04;44.75;101229.50;5146807;27;20046;-56
2022/04/13 03:15:11;;;;;;;1.30;1.20;;;;;;;19.03;44.75;101228.66;5128268;27;20023;-56
2022/04/13 03:17:37;;;;;;;1.88;1.08;;;;;;;19.03;44.56;101231.34;5147217;27;20060;-52
2022/04/13 03:20:02;;;;;;;1.08;1.00;;;;;;;19.03;44.61;101241.25;5147277;27;20055;-55
2022/04/13 03:22:28;;;;;;;1.35;1.02;;;;;;;19.02;44.60;101240.41;5146699;27;20051;-55
2022/04/13 03:24:53;;;;;;;1.55;1.15;;;;;;;19.01;44.84;101235.19;5146886;27;20095;-53
2022/04/13 03:27:18;;;;;;;0.90;0.90;;;;;;;19.02;44.67;101242.28;5145693;27;20092;-55
2022/04/13 03:29:44;;;;;;;1.90;1.20;;;;;;;18.98;44.50;101234.50;5146525;27;20027;-56
2022/04/13 03:32:09;;;;;;;1.50;1.10;;;;;;;19.01;44.75;101243.28;5128484;27;20104;-54
2022/04/13 03:34:35;;;;;;;1.85;1.15;;;;;;;19.01;44.46;101248.66;5128244;27;20023;-54
2022/04/13 03:37:00;;;;;;;2.13;1.10;;;;;;;19.00;44.46;101247.84;5146577;27;20016;-56
2022/04/13 03:39:26;;;;;;;1.08;1.00;;;;;;;19.00;44.79;101247.00;5146373;27;20068;-56
2022/04/13 03:41:51;;;;;;;1.77;1.20;;;;;;;19.00;44.49;101253.22;5146137;27;20118;-55
2022/04/13 03:44:16;;;;;;;1.92;1.20;;;;;;;19.00;44.47;101244.28;5146348;27;20035;-55
2022/04/13 03:46:42;;;;;;;1.45;1.00;;;;;;;18.95;44.93;101256.41;5139550;27;20019;-54
2022/04/13 03:49:08;;;;;;;1.20;1.10;;;;;;;18.98;44.74;101256.06;5145487;27;20027;-55
2022/04/13 03:51:33;;;;;;;1.17;1.08;;;;;;;18.99;44.74;101262.31;5146224;27;20045;-56
2022/04/13 03:53:59;;;;;;;1.88;1.20;;;;;;;18.96;44.55;101252.69;5146236;27;20023;-56
2022/04/13 03:56:24;;;;;;;1.30;0.80;;;;;;;18.98;44.76;101264.13;5145811;27;20019;-55
2022/04/13 03:58:49;;;;;;;1.20;0.93;;;;;;;18.97;44.55;101270.53;5127290;27;20052;-55
2022/04/13 04:01:15;;;;;;;1.30;1.02;;;;;;;18.97;44.68;101269.69;5146466;27;20396;-56
2022/04/13 04:03:40;;;;;;;1.58;1.27;;;;;;;18.96;44.69;101271.56;5146377;27;20464;-56
2022/04/13 04:06:05;;;;;;;1.33;1.20;;;;;;;18.96;44.88;101268.84;5127473;27;20034;-56
2022/04/13 04:08:35;;;;;;;1.30;1.15;;;;;;;18.96;44.68;101268.00;5145790;27;20023;-56
2022/04/13 04:11:00;;;;;;;1.50;1.33;;;;;;;18.95;44.64;101269.03;5146023;27;20023;-56
2022/04/13 04:13:25;;;;;;;1.58;1.20;;;;;;;18.94;44.25;101270.84;5145275;27;20080;-52
2022/04/13 04:15:51;;;;;;;1.38;1.10;;;;;;;18.94;44.52;101272.72;5145914;27;20019;-56
2022/04/13 04:18:16;;;;;;;1.30;1.10;;;;;;;18.95;44.52;101277.13;5146012;27;20027;-56
2022/04/13 04:20:41;;;;;;;1.65;1.40;;;;;;;18.91;44.53;101271.19;5145843;27;20027;-55
2022/04/13 04:23:07;;;;;;;1.30;1.02;;;;;;;18.94;44.49;101278.94;5145579;27;20023;-55
2022/04/13 04:25:32;;;;;;;1.83;1.33;;;;;;;18.93;44.63;101271.03;5145763;27;20023;-56
2022/04/13 04:27:57;;;;;;;2.20;1.17;;;;;;;18.93;44.76;101284.50;5144995;27;20156;-55
2022/04/13 04:30:22;;;;;;;1.50;1.23;;;;;;;18.93;44.56;101289.88;5145487;27;20114;-55
2022/04/13 04:32:48;;;;;;;1.45;1.10;;;;;;;18.91;44.69;101276.59;5145758;27;20106;-56
2022/04/13 04:35:13;;;;;;;1.58;1.10;;;;;;;18.90;44.61;101285.69;5145690;27;20031;-56
2022/04/13 04:37:38;;;;;;;1.88;1.20;;;;;;;18.91;44.50;101289.22;5145336;27;20027;-55
2022/04/13 04:40:05;;;;;;;1.45;1.15;;;;;;;18.89;44.48;101285.81;5144227;27;20058;-56
2022/04/13 04:42:30;;;;;;;1.35;1.10;;;;;;;18.91;44.49;101292.75;5145010;27;20031;-55
2022/04/13 04:44:57;;;;;;;1.38;1.00;;;;;;;18.91;44.45;101297.28;5126453;27;20026;-54
2022/04/13 04:47:22;;;;;;;1.17;1.00;;;;;;;18.90;44.26;101300.97;5124731;28;20031;-56
2022/04/13 04:49:47;;;;;;;1.10;1.00;;;;;;;18.91;44.73;101302.69;5124914;28;20116;-55
2022/04/13 04:52:13;;;;;;;1.27;1.10;;;;;;;18.89;44.35;101300.13;5131277;27;20087;-54
2022/04/13 04:54:38;;;;;;;1.23;1.00;;;;;;;18.89;44.45;101308.22;5145180;27;20079;-56
2022/04/13 04:57:03;;;;;;;1.30;1.20;;;;;;;18.89;44.57;101301.97;5144669;27;20023;-55
2022/04/13 04:59:28;;;;;;;1.13;0.80;;;;;;;18.88;44.40;101301.16;5126307;27;20031;-56
2022/04/13 05:01:53;;;;;;;1.38;1.10;;;;;;;18.88;44.46;101303.84;5145087;27;20031;-55
2022/04/13 05:04:19;;;;;;;1.27;1.05;;;;;;;18.88;44.42;101301.16;5144384;27;20023;-54
2022/04/13 05:06:44;;;;;;;1.77;1.33;;;;;;;18.88;44.42;101306.53;5126629;27;20034;-55
2022/04/13 05:09:09;;;;;;;1.25;1.15;;;;;;;18.88;44.66;101306.53;5123870;28;20033;-56
2022/04/13 05:11:34;;;;;;;1.10;1.00;;;;;;;18.84;44.77;101310.53;5124217;27;20036;-56
2022/04/13 05:13:59;;;;;;;1.35;1.25;;;;;;;18.88;44.42;101328.09;5140686;27;20028;-55
2022/04/13 05:16:25;;;;;;;1.33;1.10;;;;;;;18.87;44.54;101322.88;5144169;27;20022;-55
2022/04/13 05:18:50;;;;;;;1.58;1.35;;;;;;;18.87;44.27;101334.47;5142316;27;20041;-56
2022/04/13 05:21:16;;;;;;;1.50;1.30;;;;;;;18.85;44.63;101333.78;5123717;27;20019;-54
2022/04/13 05:23:42;;;;;;;1.63;1.08;;;;;;;18.87;44.73;101336.34;5138645;27;20031;-55
2022/04/13 05:26:07;;;;;;;0.93;0.90;;;;;;;18.87;44.68;101341.72;5143949;27;20023;-55
2022/04/13 05:28:33;;;;;;;1.50;1.17;;;;;;;18.87;44.47;101349.81;5127431;27;20053;-57
2022/04/13 05:30:58;;;;;;;2.40;1.55;;;;;;;18.87;44.79;101355.19;5123736;27;20467;-55
2022/04/13 05:33:23;;;;;;;2.05;1.30;;;;;;;18.87;44.49;101361.44;5123747;28;20027;-55
2022/04/13 05:35:49;;;;;;;2.30;1.20;;;;;;;18.86;44.49;101362.44;5123674;27;20019;-56
2022/04/13 05:38:14;;;;;;;1.55;1.00;;;;;;;18.87;44.59;101363.28;5123418;28;20019;-58
2022/04/13 05:40:40;;;;;;;1.20;1.10;;;;;;;18.87;44.80;101366.81;5138326;27;20059;-59
2022/04/13 05:43:05;;;;;;;1.23;1.10;;;;;;;18.86;44.81;101367.81;5138492;27;20096;-58
2022/04/13 05:45:31;;;;;;;1.63;1.30;;;;;;;18.87;44.88;101380.28;5143297;27;20031;-59
2022/04/13 05:47:57;;;;;;;2.13;1.00;;;;;;;18.87;44.68;101380.28;5141242;28;20106;-59
2022/04/13 05:50:22;;;;;;;1.33;1.02;;;;;;;18.86;44.83;101375.91;5145272;27;20023;-59
2022/04/13 05:52:47;;;;;;;1.52;1.23;;;;;;;18.86;44.81;101375.03;5143627;27;20053;-59
2022/04/13 05:55:12;;;;;;;2.13;1.02;;;;;;;18.85;44.87;101382.28;5149204;27;20072;-59
2022/04/13 05:57:38;;;;;;;1.70;1.30;;;;;;;18.83;44.95;101370.81;5138995;27;20038;-59
2022/04/13 06:00:08;;;;;;;1.55;1.15;;;;;;;18.82;44.83;101373.66;5130102;27;20022;-58
2022/04/13 06:02:37;;;;;;;1.75;1.33;;;;;;;18.84;44.70;101385.97;5114012;27;20452;-59
2022/04/13 06:05:04;;;;;;;1.85;1.05;;;;;;;18.83;44.99;101388.84;5130407;27;20020;-58
2022/04/13 06:07:29;;;;;;;1.92;1.15;;;;;;;18.83;44.82;101383.44;5138414;27;20031;-59
2022/04/13 06:09:55;;;;;;;2.42;1.58;;;;;;;18.83;44.83;101396.94;5130119;27;20027;-59
2022/04/13 06:12:21;;;;;;;2.42;1.73;;;;;;;18.82;44.56;101398.78;5132886;27;20034;-59
2022/04/13 06:14:47;;;;;;;2.75;1.75;;;;;;;18.82;44.96;101396.09;5150080;27;20015;-59
2022/04/13 06:17:12;;;;;;;4.10;2.00;;;;;;;18.82;44.90;101409.56;5150649;27;20027;-59
2022/04/13 06:19:37;;;;;;;1.90;1.50;;;;;;;18.82;44.77;101408.69;5151006;27;20554;-59
2022/04/13 06:22:02;;;;;;;1.63;1.25;;;;;;;18.83;44.84;101413.09;5150600;27;20042;-59
2022/04/13 06:24:28;;;;;;;1.55;1.45;;;;;;;18.83;44.58;101416.63;5150858;27;20035;-59
2022/04/13 06:26:53;;;;;;;2.47;1.63;;;;;;;18.83;44.97;101423.88;5149940;27;20027;-59
2022/04/13 06:29:18;;;;;;;2.80;1.45;;;;;;;18.82;44.89;101431.09;5150756;27;20083;-59
2022/04/13 06:31:43;;;;;;;2.88;1.70;;;;;;;18.83;44.81;101435.47;5150784;27;20391;-59
2022/04/13 06:34:08;;;;;;;1.85;1.45;;;;;;;18.81;44.84;101434.78;5148832;27;20394;-58
2022/04/13 06:36:34;;;;;;;1.85;1.58;;;;;;;18.84;44.58;101442.56;5146554;27;20027;-58
2022/04/13 06:38:59;;;;;;;3.10;1.83;;;;;;;18.85;44.79;101443.41;5144064;27;20396;-58
2022/04/13 06:41:24;;;;;;;2.38;1.70;;;;;;;18.84;44.99;101444.41;5137595;27;20036;-58
2022/04/13 06:43:52;;;;;;;2.88;1.77;;;;;;;18.85;44.84;101446.94;5146739;27;20022;-59
2022/04/13 06:46:17;;;;;;;3.38;2.00;;;;;;;18.85;45.00;101449.63;5150069;27;20031;-58
2022/04/13 06:48:42;;;;;;;2.55;1.90;;;;;;;18.85;44.83;101454.19;5150748;27;20030;-58
2022/04/13 06:51:07;;;;;;;2.58;1.80;;;;;;;18.85;44.75;101456.88;5150745;27;20085;-58
2022/04/13 06:53:33;;;;;;;3.13;1.88;;;;;;;18.86;44.83;101458.56;5132079;27;20033;-58
2022/04/13 06:55:58;;;;;;;2.53;1.95;;;;;;;18.86;44.85;101458.56;5150592;27;20019;-59
2022/04/13 06:58:24;;;;;;;3.00;2.13;;;;;;;18.86;44.74;101456.75;5150045;27;20074;-59
2022/04/13 07:00:49;;;;;;;4.15;1.77;;;;;;;18.86;45.07;101456.75;5150077;27;20042;-59
2022/04/13 07:03:14;;;;;;;3.67;2.08;;;;;;;18.88;45.11;101461.97;5146955;27;20098;-58
2022/04/13 07:05:40;;;;;;;2.45;1.67;;;;;;;18.86;44.98;101462.13;5147326;27;20038;-58
2022/04/13 07:08:06;;;;;;;2.58;1.67;;;;;;;18.86;45.02;101466.63;5146989;27;20023;-59
2022/04/13 07:10:32;;;;;;;2.38;1.52;;;;;;;18.86;44.93;101464.81;5147390;27;20026;-58
2022/04/13 07:12:58;;;;;;;3.33;1.70;;;;;;;18.83;45.01;101467.81;5146350;27;20359;-59
2022/04/13 07:15:24;;;;;;;1.92;1.42;;;;;;;18.85;44.97;101471.19;5146926;27;20019;-59
2022/04/13 07:17:49;;;;;;;1.63;1.27;;;;;;;18.86;45.11;101472.03;5146912;27;20080;-58
2022/04/13 07:20:14;;;;;;;2.15;1.40;;;;;;;18.86;45.26;101485.50;5147297;27;20019;-59
2022/04/13 07:22:47;;;;;;;1.40;1.17;;;;;;;18.87;45.18;101477.28;5146777;27;20044;-59
2022/04/13 07:25:14;;;;;;;1.30;1.20;;;;;;;18.84;45.09;101471.34;5146959;27;20023;-59
2022/04/13 07:27:40;;;;;;;1.50;1.17;;;;;;;18.86;45.30;101467.50;5146061;27;20030;-58
2022/04/13 07:30:06;;;;;;;1.52;1.20;;;;;;;18.87;45.01;101481.81;5146555;27;20031;-59
2022/04/13 07:32:31;;;;;;;1.95;1.20;;;;;;;18.86;45.44;101499.84;5146694;27;20471;-58
2022/04/13 07:34:59;;;;;;;1.63;1.50;;;;;;;18.86;45.14;101486.38;5146485;27;20023;-58
2022/04/13 07:37:27;;;;;;;1.20;1.10;;;;;;;18.86;45.22;101494.47;5146251;27;20027;-55
2022/04/13 07:39:53;;;;;;;1.93;1.10;;;;;;;18.86;45.13;101502.53;5144569;27;20070;-59
2022/04/13 07:42:26;;;;;;;1.27;0.98;;;;;;;18.87;45.04;101506.06;5146191;27;20445;-58
2022/04/13 07:44:52;;;;;;;1.27;1.00;;;;;;;18.87;44.78;101511.47;5146279;27;20106;-57
2022/04/13 07:47:20;;;;;;;3.13;1.40;;;;;;;18.88;44.91;101518.53;5146705;27;20019;-59
2022/04/13 07:49:48;;;;;;;1.27;0.90;;;;;;;18.89;44.59;101517.53;5146544;27;20052;-59
2022/04/13 07:52:14;;;;;;;1.60;1.20;;;;;;;18.89;44.59;101520.22;5145975;27;20282;-58
2022/04/13 07:54:40;;;;;;;1.95;0.95;;;;;;;18.88;44.66;101527.47;5127963;27;20034;-59
2022/04/13 07:57:05;;;;;;;2.53;1.10;;;;;;;18.90;44.45;101527.31;5145684;27;20494;-59
2022/04/13 07:59:30;;;;;;;0.80;0.75;;;;;;;18.89;44.46;101531.84;5145964;27;20112;-59
2022/04/13 08:01:55;;;;;;;0.98;0.88;;;;;;;18.91;44.61;101529.03;5146244;27;20057;-59
2022/04/13 08:04:21;;;;;;;1.13;1.00;;;;;;;18.90;44.48;101525.47;5146103;27;20027;-58
2022/04/13 08:06:46;;;;;;;1.13;1.05;;;;;;;18.90;44.41;101530.88;5145856;27;20482;-59
2022/04/13 08:09:11;;;;;;;1.13;1.02;;;;;;;18.91;44.60;101537.09;5145406;27;20031;-58
2022/04/13 08:11:36;;;;;;;1.05;0.95;;;;;;;18.91;44.44;101539.78;5145563;27;20034;-59
2022/04/13 08:14:02;;;;;;;1.10;0.93;;;;;;;18.91;44.66;101537.09;5145350;27;20031;-58
2022/04/13 08:16:27;;;;;;;1.17;0.88;;;;;;;18.92;44.01;101542.31;5145809;27;20016;-58
2022/04/13 08:18:52;;;;;;;0.85;0.75;;;;;;;18.93;44.19;101540.47;5145966;27;20046;-58
2022/04/13 08:21:17;;;;;;;1.08;0.95;;;;;;;18.93;44.14;101541.31;5145900;27;20027;-58
2022/04/13 08:23:43;;;;;;;1.63;1.10;;;;;;;18.93;44.49;101549.41;5145332;27;20035;-58
2022/04/13 08:26:08;;;;;;;1.10;0.90;;;;;;;18.96;44.36;101550.97;5145868;27;20117;-58
2022/04/13 08:28:33;;;;;;;1.02;0.85;;;;;;;18.97;44.37;101547.25;5145348;27;20092;-58
2022/04/13 08:30:58;;;;;;;2.03;1.33;;;;;;;18.96;44.03;101559.88;5145330;27;20019;-58
2022/04/13 08:33:24;;;;;;;2.45;1.83;;;;;;;18.98;44.33;101565.94;5145229;27;20027;-58
2022/04/13 08:35:50;;;;;;;1.02;0.90;;;;;;;18.98;44.23;101565.09;5145407;27;20612;-58
2022/04/13 08:38:15;;;;;;;1.20;0.80;;;;;;;18.97;43.98;101561.56;5145067;27;20031;-58
2022/04/13 08:40:57;;;;;;;0.80;0.80;;;;;;;19.01;44.00;101569.34;5145764;27;20023;-59
2022/04/13 08:43:28;;;;;;;1.10;0.98;;;;;;;19.01;44.25;101566.66;5145047;27;20019;-58
2022/04/13 08:45:55;;;;;;;1.20;0.95;;;;;;;19.01;44.05;101564.81;5144554;27;20058;-58
2022/04/13 08:48:24;;;;;;;1.08;0.80;;;;;;;19.01;44.22;101556.72;5145580;27;20054;-59
2022/04/13 08:50:57;;;;;;;1.27;1.02;;;;;;;19.01;43.80;101555.88;5145245;27;20468;-58
2022/04/13 08:53:27;;;;;;;0.80;0.80;;;;;;;19.01;44.06;101569.34;5145569;27;20023;-59
2022/04/13 08:55:53;;;;;;;0.70;0.70;;;;;;;19.01;44.12;101570.19;5145178;27;20142;-59
2022/04/13 08:58:54;;;;;;;0.77;0.77;;;;;;;19.02;44.19;101560.25;5144840;27;20019;-58
2022/04/13 09:01:27;;;;;;;1.35;1.23;;;;;;;19.02;43.99;101561.09;5045794;28;20053;-59
2022/04/13 09:03:54;;;;;;;1.45;0.98;;;;;;;19.03;43.99;101575.44;5041317;28;20041;-58
2022/04/13 09:06:20;;;;;;;1.20;0.80;;;;;;;19.05;43.99;101584.22;5024274;28;20033;-58
2022/04/13 09:08:52;;;;;;;0.88;0.80;;;;;;;19.07;44.19;101582.22;5040928;28;20060;-59
2022/04/13 09:11:22;;;;;;;1.05;0.80;;;;;;;19.07;44.30;101579.50;5040866;28;20033;-58
2022/04/13 09:13:48;;;;;;;2.03;1.33;;;;;;;19.08;43.89;101587.47;5046157;28;20061;-58
2022/04/13 09:16:14;;;;;;;1.00;0.85;;;;;;;19.10;44.12;101581.91;5060560;28;20087;-59
2022/04/13 09:18:40;;;;;;;0.93;0.82;;;;;;;19.10;43.92;101587.31;5060926;28;20048;-58
2022/04/13 09:21:05;;;;;;;0.70;0.70;;;;;;;19.12;43.87;101588.00;5046279;28;20095;-59
2022/04/13 09:23:31;;;;;;;1.05;1.05;;;;;;;19.12;43.85;101588.00;5037852;28;20041;-58
2022/04/13 09:25:58;;;;;;;1.02;0.93;;;;;;;19.10;43.99;101581.91;5034708;28;20025;-58
2022/04/13 09:28:23;;;;;;;1.23;1.13;;;;;;;19.11;43.94;101588.97;5031574;28;20025;-58
2022/04/13 09:30:49;;;;;;;0.98;0.80;;;;;;;19.12;44.06;101596.94;5020728;28;20048;-57
2022/04/13 09:33:14;;;;;;;1.20;0.80;;;;;;;19.13;43.90;101593.25;5038032;28;20038;-58
2022/04/13 09:35:39;;;;;;;1.05;0.77;;;;;;;19.14;43.96;101594.94;5033532;28;20037;-58
2022/04/13 09:38:07;;;;;;;1.08;0.98;;;;;;;19.15;43.80;101588.53;5142350;27;20023;-58
2022/04/13 09:40:32;;;;;;;1.00;0.90;;;;;;;19.15;44.07;101580.44;5143461;27;20051;-58
2022/04/13 09:43:07;;;;;;;1.05;0.80;;;;;;;19.17;44.05;101583.00;5143637;27;20042;-58
2022/04/13 09:45:55;;;;;;;1.00;0.90;;;;;;;19.16;44.07;101587.53;5140675;27;20055;-58
2022/04/13 09:48:22;;;;;;;1.15;0.75;;;;;;;19.16;43.87;101586.69;5144580;27;20027;-58
2022/04/13 09:50:49;;;;;;;0.77;0.77;;;;;;;19.16;43.99;101592.94;5144068;27;20027;-57
2022/04/13 09:53:16;;;;;;;1.17;0.95;;;;;;;19.15;44.09;101585.00;5144498;28;20023;-58
2022/04/13 09:55:43;;;;;;;1.27;0.90;;;;;;;19.16;43.94;101584.84;5144329;28;20019;-58
2022/04/13 09:58:14;;;;;;;1.42;0.85;;;;;;;19.17;44.31;101586.53;5143659;28;20041;-58
2022/04/13 10:00:41;;;;;;;0.77;0.77;;;;;;;19.17;43.93;101591.09;5119298;28;20091;-59
2022/04/13 10:03:14;;;;;;;1.15;0.88;;;;;;;19.17;43.97;101591.09;5125234;28;20031;-58
2022/04/13 10:05:51;;;;;;;1.15;0.90;;;;;;;19.19;44.16;101591.75;5140338;28;20034;-59
2022/04/13 10:08:24;;;;;;;0.80;0.80;;;;;;;19.18;44.19;101596.31;5141517;28;20038;-58
2022/04/13 10:10:59;;;;;;;0.90;0.70;;;;;;;19.19;43.96;101600.69;5119265;28;20035;-58
2022/04/13 10:13:34;;;;;;;0.80;0.80;;;;;;;19.21;44.24;101601.41;5136207;28;20095;-59
2022/04/13 10:16:01;;;;;;;1.25;1.00;;;;;;;19.21;44.17;101600.56;5138658;28;20092;-58
2022/04/13 10:18:27;;;;;;;0.88;0.80;;;;;;;19.21;44.07;101604.09;5143636;28;20035;-58
2022/04/13 10:20:53;;;;;;;0.95;0.88;;;;;;;19.21;44.34;101606.78;5143701;28;20027;-56
2022/04/13 10:23:18;;;;;;;0.70;0.70;;;;;;;19.23;44.22;101606.63;5120748;28;20070;-58
2022/04/13 10:25:44;;;;;;;1.00;0.70;;;;;;;19.22;44.45;101608.47;5143520;28;20027;-58
2022/04/13 10:28:12;;;;;;;0.80;0.80;;;;;;;19.23;44.50;101606.63;5138075;28;20105;-58
2022/04/13 10:30:39;;;;;;;0.77;0.77;;;;;;;19.25;44.65;101611.91;5136718;28;20027;-58
2022/04/13 10:33:06;;;;;;;0.95;0.82;;;;;;;19.27;44.65;101615.25;5141899;28;20027;-61
2022/04/13 10:35:41;;;;;;;2.30;1.00;;;;;;;19.30;44.71;101625.75;5136310;28;20031;-58
2022/04/13 10:38:07;;;;;;;1.27;1.02;;;;;;;19.31;44.74;101632.84;5144803;27;20023;-58
2022/04/13 10:40:38;;;;;;;1.92;1.10;;;;;;;19.34;44.93;101630.69;5147778;27;20051;-58
2022/04/13 10:43:05;;;;;;;1.38;1.05;;;;;;;19.38;44.70;101623.13;5147143;27;20023;-59
2022/04/13 10:45:30;;;;;;;1.10;0.93;;;;;;;19.41;44.70;101625.50;5144685;27;20023;-59
2022/04/13 10:48:07;;;;;;;1.88;1.30;;;;;;;19.45;44.83;101618.78;5147293;27;20027;-57
2022/04/13 10:50:57;;;;;;;1.95;1.30;;;;;;;19.48;44.90;101629.28;5147257;27;20451;-60
2022/04/13 10:53:28;;;;;;;2.17;1.20;;;;;;;19.48;44.77;101631.97;5147689;27;20038;-59
2022/04/13 10:56:02;;;;;;;2.08;1.10;;;;;;;19.45;44.72;101630.47;5147375;27;20023;-59
2022/04/13 10:58:46;;;;;;;1.65;1.00;;;;;;;19.42;45.06;101633.47;5146898;27;20026;-59
2022/04/13 11:01:13;;;;;;;1.65;1.02;;;;;;;19.37;45.06;101630.38;5147253;27;20031;-59
2022/04/13 11:03:41;;;;;;;1.02;0.90;;;;;;;19.33;44.81;101626.28;5147512;27;20031;-59
2022/04/13 11:06:08;;;;;;;1.33;0.82;;;;;;;19.32;44.81;101640.75;5146913;27;20038;-58
2022/04/13 11:08:46;;;;;;;1.02;0.88;;;;;;;19.31;45.19;101633.69;5145637;27;20096;-59
2022/04/13 11:11:19;;;;;;;1.15;0.75;;;;;;;19.30;44.91;101641.94;5147266;27;20034;-59
2022/04/13 11:13:47;;;;;;;1.20;0.90;;;;;;;19.29;45.15;101640.25;5147120;27;20027;-59
2022/04/13 11:16:23;;;;;;;2.05;1.10;;;;;;;19.28;45.27;101638.53;5146675;27;20031;-59
2022/04/13 11:19:01;;;;;;;0.75;0.73;;;;;;;19.28;44.91;101641.22;5147463;27;20038;-59
2022/04/13 11:21:28;;;;;;;0.80;0.80;;;;;;;19.25;44.96;101637.00;5146780;27;20029;-59